Time;durP1;ratioP1;P1;durP2;ratioP2;P2;SDS_P1;SDS_P2;PMS_P1;PMS_P2;Temp;Humidity;BMP_temperature;BMP_pressure;BME280_temperature;BME280_humidity;BME280_pressure;Samples;Min_cycle;Max_cycle;Signal;HPM_P1;HPM_P2
2020/12/07 00:00:57;;;;;;;;;;;2.80;99.90;;;;;;5033513;28;19909;-90
2020/12/07 00:03:22;;;;;;;;;;;2.90;99.90;;;;;;5033627;28;19909;-90
2020/12/07 00:05:48;;;;;;;;;;;2.90;99.90;;;;;;5033645;28;20364;-90
2020/12/07 00:08:13;;;;;;;;;;;2.90;99.90;;;;;;5033461;28;20518;-89
2020/12/07 00:10:41;;;;;;;;;;;2.90;99.90;;;;;;5033324;28;19909;-89
2020/12/07 00:13:09;;;;;;;;;;;2.90;99.90;;;;;;5033648;28;19963;-90
2020/12/07 00:15:35;;;;;;;;;;;2.90;99.90;;;;;;5033604;28;19910;-90
2020/12/07 00:18:01;;;;;;;;;;;2.90;99.90;;;;;;5033232;28;20411;-90
2020/12/07 00:20:29;;;;;;;;;;;2.90;99.90;;;;;;5033599;28;20436;-89
2020/12/07 00:22:57;;;;;;;;;;;2.90;99.90;;;;;;5033296;28;19960;-91
2020/12/07 00:25:26;;;;;;;;;;;2.90;99.90;;;;;;5033147;28;19931;-89
2020/12/07 00:27:54;;;;;;;;;;;2.90;99.90;;;;;;5033125;28;19909;-90
2020/12/07 00:30:20;;;;;;;;;;;3.00;99.90;;;;;;5033197;28;19925;-90
2020/12/07 00:32:45;;;;;;;;;;;2.90;99.90;;;;;;5033054;28;19928;-90
2020/12/07 00:35:11;;;;;;;;;;;2.90;99.90;;;;;;5033019;28;19909;-90
2020/12/07 00:37:36;;;;;;;;;;;3.00;99.90;;;;;;5032507;28;19936;-90
2020/12/07 00:40:04;;;;;;;;;;;3.00;99.90;;;;;;5032685;28;19917;-90
2020/12/07 00:42:30;;;;;;;;;;;3.00;99.90;;;;;;5033093;28;20012;-91
2020/12/07 00:44:55;;;;;;;;;;;3.00;99.90;;;;;;5032977;28;19940;-90
2020/12/07 00:47:21;;;;;;;;;;;3.00;99.90;;;;;;5033064;28;20050;-91
2020/12/07 00:49:46;;;;;;;;;;;3.00;99.90;;;;;;5032933;28;20443;-90
2020/12/07 00:52:12;;;;;;;;;;;3.00;99.90;;;;;;5032745;28;19953;-90
2020/12/07 00:54:37;;;;;;;;;;;3.00;99.90;;;;;;5032687;28;19947;-89
2020/12/07 00:57:03;;;;;;;;;;;3.00;99.90;;;;;;5032779;28;19921;-90
2020/12/07 00:59:29;;;;;;;;;;;3.00;99.90;;;;;;5032711;28;20311;-90
2020/12/07 01:01:55;;;;;;;;;;;3.00;99.90;;;;;;5032608;28;20292;-89
2020/12/07 01:04:21;;;;;;;;;;;3.00;99.90;;;;;;5032766;28;19944;-90
2020/12/07 01:06:49;;;;;;;;;;;3.00;99.90;;;;;;5032385;28;20275;-90
2020/12/07 01:09:14;;;;;;;;;;;3.00;99.90;;;;;;5032594;28;19909;-90
2020/12/07 01:11:42;;;;;;;;;;;3.00;99.90;;;;;;5032712;28;20273;-90
2020/12/07 01:14:10;;;;;;;;;;;3.00;99.90;;;;;;5032543;28;19913;-90
2020/12/07 01:16:38;;;;;;;;;;;3.10;99.90;;;;;;5032430;28;19913;-90
2020/12/07 01:19:09;;;;;;;;;;;3.10;99.90;;;;;;5032702;28;20051;-90
2020/12/07 01:21:34;;;;;;;;;;;3.10;99.90;;;;;;5033562;28;19909;-91
2020/12/07 01:24:00;;;;;;;;;;;3.20;99.90;;;;;;5032497;28;19920;-89
2020/12/07 01:26:26;;;;;;;;;;;3.10;99.90;;;;;;5032365;28;20380;-90
2020/12/07 01:28:52;;;;;;;;;;;3.10;99.90;;;;;;5033628;28;19909;-90
2020/12/07 01:31:18;;;;;;;;;;;3.10;99.90;;;;;;5053618;28;19909;-90
2020/12/07 01:33:44;;;;;;;;;;;3.10;99.90;;;;;;5035635;28;20004;-89
2020/12/07 01:36:10;;;;;;;;;;;3.10;99.90;;;;;;5035264;28;19923;-89
2020/12/07 01:38:38;;;;;;;;;;;3.10;99.90;;;;;;5035656;28;19913;-90
2020/12/07 01:41:06;;;;;;;;;;;3.10;99.90;;;;;;5035530;28;19915;-90
2020/12/07 01:43:32;;;;;;;;;;;3.10;99.90;;;;;;5035609;28;19909;-90
2020/12/07 01:46:00;;;;;;;;;;;3.10;99.90;;;;;;5035633;28;19958;-90
2020/12/07 01:48:26;;;;;;;;;;;3.10;99.90;;;;;;5035451;28;19909;-90
2020/12/07 01:50:55;;;;;;;;;;;3.10;99.90;;;;;;5038696;28;19909;-90
2020/12/07 01:53:21;;;;;;;;;;;3.10;99.90;;;;;;5039601;28;20090;-91
2020/12/07 01:55:49;;;;;;;;;;;3.10;99.90;;;;;;5039586;28;20384;-89
2020/12/07 01:58:15;;;;;;;;;;;3.10;99.90;;;;;;5039365;28;19912;-89
2020/12/07 02:00:41;;;;;;;;;;;3.10;99.90;;;;;;5039163;28;19909;-90
2020/12/07 02:03:08;;;;;;;;;;;3.10;99.90;;;;;;5038908;28;20367;-89
2020/12/07 02:05:33;;;;;;;;;;;3.10;99.90;;;;;;5038910;28;19915;-90
2020/12/07 02:08:18;;;;;;;;;;;3.10;99.90;;;;;;5038897;28;20007;-91
2020/12/07 02:10:48;;;;;;;;;;;3.10;99.90;;;;;;5039082;28;20295;-89
2020/12/07 02:13:14;;;;;;;;;;;3.10;99.90;;;;;;5039297;28;19912;-90
2020/12/07 02:15:40;;;;;;;;;;;3.10;99.90;;;;;;5038943;28;19927;-90
2020/12/07 02:18:08;;;;;;;;;;;3.10;99.90;;;;;;5038796;28;19999;-90
2020/12/07 02:20:34;;;;;;;;;;;3.10;99.90;;;;;;5038973;28;19908;-90
2020/12/07 02:23:03;;;;;;;;;;;3.10;99.90;;;;;;5038915;28;20364;-92
2020/12/07 02:25:28;;;;;;;;;;;3.10;99.90;;;;;;5038680;28;19908;-89
2020/12/07 02:27:56;;;;;;;;;;;3.10;99.90;;;;;;5038742;28;19920;-90
2020/12/07 02:30:25;;;;;;;;;;;3.10;99.90;;;;;;5034973;28;20017;-90
2020/12/07 02:32:51;;;;;;;;;;;3.10;99.90;;;;;;5035327;28;20052;-90
2020/12/07 02:35:17;;;;;;;;;;;3.10;99.90;;;;;;5035225;28;19916;-90
2020/12/07 02:37:43;;;;;;;;;;;3.10;99.90;;;;;;5035033;28;19913;-90
2020/12/07 02:40:09;;;;;;;;;;;3.10;99.90;;;;;;5035223;28;20008;-90
2020/12/07 02:42:35;;;;;;;;;;;3.10;99.90;;;;;;5035185;28;20394;-89
2020/12/07 02:45:04;;;;;;;;;;;3.10;99.90;;;;;;5034977;28;19910;-91
2020/12/07 02:47:32;;;;;;;;;;;3.10;99.90;;;;;;5035435;28;20118;-90
2020/12/07 02:49:58;;;;;;;;;;;3.10;99.90;;;;;;5035030;28;19973;-89
2020/12/07 02:52:24;;;;;;;;;;;3.10;99.90;;;;;;5035019;28;20253;-90
2020/12/07 02:54:53;;;;;;;;;;;3.10;99.90;;;;;;5034873;28;20368;-89
2020/12/07 02:57:19;;;;;;;;;;;3.10;99.90;;;;;;5034675;28;20316;-89
2020/12/07 02:59:44;;;;;;;;;;;3.10;99.90;;;;;;5035045;28;19996;-90
2020/12/07 03:02:15;;;;;;;;;;;3.10;99.90;;;;;;5033888;28;19913;-89
2020/12/07 03:04:40;;;;;;;;;;;3.10;99.90;;;;;;5034706;28;19913;-89
2020/12/07 03:07:06;;;;;;;;;;;3.10;99.90;;;;;;5034384;28;19909;-90
2020/12/07 03:09:34;;;;;;;;;;;3.10;99.90;;;;;;5034774;28;19909;-89
2020/12/07 03:12:00;;;;;;;;;;;3.20;99.90;;;;;;5034364;28;19920;-89
2020/12/07 03:14:30;;;;;;;;;;;3.20;99.90;;;;;;5034575;28;19909;-90
2020/12/07 03:16:56;;;;;;;;;;;3.10;99.90;;;;;;5034597;28;19913;-90
2020/12/07 03:19:23;;;;;;;;;;;3.10;99.90;;;;;;5034618;28;19920;-90
2020/12/07 03:21:49;;;;;;;;;;;3.10;99.90;;;;;;5034495;28;19909;-90
2020/12/07 03:24:15;;;;;;;;;;;3.10;99.90;;;;;;5034513;28;19959;-90
2020/12/07 03:26:40;;;;;;;;;;;3.10;99.90;;;;;;5034594;28;19910;-89
2020/12/07 03:29:08;;;;;;;;;;;3.10;99.90;;;;;;5034109;28;19955;-90
2020/12/07 03:31:35;;;;;;;;;;;3.10;99.90;;;;;;5034014;28;19921;-90
2020/12/07 03:34:01;;;;;;;;;;;3.10;99.90;;;;;;5034186;28;20085;-89
2020/12/07 03:36:27;;;;;;;;;;;3.10;99.90;;;;;;5033926;28;19935;-89
2020/12/07 03:38:55;;;;;;;;;;;3.10;99.90;;;;;;5033763;28;19976;-89
2020/12/07 03:41:22;;;;;;;;;;;3.10;99.90;;;;;;5034093;28;19913;-89
2020/12/07 03:43:48;;;;;;;;;;;3.20;99.90;;;;;;5034104;28;19909;-89
2020/12/07 03:46:14;;;;;;;;;;;3.20;99.90;;;;;;5033779;28;20418;-91
2020/12/07 03:48:40;;;;;;;;;;;3.20;99.90;;;;;;5034086;28;19913;-89
2020/12/07 03:51:05;;;;;;;;;;;3.20;99.90;;;;;;5033717;28;19909;-89
2020/12/07 03:53:33;;;;;;;;;;;3.10;99.90;;;;;;5034954;28;19913;-90
2020/12/07 03:55:58;;;;;;;;;;;3.10;99.90;;;;;;5033664;28;19913;-90
2020/12/07 03:58:26;;;;;;;;;;;3.20;99.90;;;;;;5033970;28;20017;-89
2020/12/07 04:00:54;;;;;;;;;;;3.20;99.90;;;;;;5033832;28;19979;-90
2020/12/07 04:03:20;;;;;;;;;;;3.10;99.90;;;;;;5033766;28;19913;-90
2020/12/07 04:05:53;;;;;;;;;;;3.20;99.90;;;;;;5033316;28;19910;-90
2020/12/07 04:08:20;;;;;;;;;;;3.10;99.90;;;;;;5032918;28;20709;-90
2020/12/07 04:10:48;;;;;;;;;;;3.10;99.90;;;;;;5033582;28;20328;-89
2020/12/07 04:13:13;;;;;;;;;;;3.20;99.90;;;;;;5032459;28;19909;-89
2020/12/07 04:15:39;;;;;;;;;;;3.20;99.90;;;;;;5033518;28;19909;-89
2020/12/07 04:18:07;;;;;;;;;;;3.10;99.90;;;;;;5033199;28;19913;-90
2020/12/07 04:20:35;;;;;;;;;;;3.20;99.90;;;;;;5033158;28;20015;-89
2020/12/07 04:23:03;;;;;;;;;;;3.10;99.90;;;;;;5033382;28;20447;-90
2020/12/07 04:25:28;;;;;;;;;;;3.10;99.90;;;;;;5033250;28;20380;-88
2020/12/07 04:27:56;;;;;;;;;;;3.10;99.90;;;;;;5033223;28;19956;-89
2020/12/07 04:30:22;;;;;;;;;;;3.10;99.90;;;;;;5033261;28;19947;-89
2020/12/07 04:32:48;;;;;;;;;;;3.20;99.90;;;;;;5033115;28;19913;-89
2020/12/07 04:35:13;;;;;;;;;;;3.10;99.90;;;;;;5032908;28;20296;-89
2020/12/07 04:37:39;;;;;;;;;;;3.10;99.90;;;;;;5032761;28;19952;-89
2020/12/07 04:40:06;;;;;;;;;;;3.10;99.90;;;;;;5033087;28;19916;-89
2020/12/07 04:42:34;;;;;;;;;;;3.10;99.90;;;;;;5032832;28;19909;-90
2020/12/07 04:45:00;;;;;;;;;;;3.10;99.90;;;;;;5032975;28;19913;-89
2020/12/07 04:47:28;;;;;;;;;;;3.10;99.90;;;;;;5032934;28;20276;-90
2020/12/07 04:49:54;;;;;;;;;;;3.20;99.90;;;;;;5032647;28;20353;-89
2020/12/07 04:52:22;;;;;;;;;;;3.10;99.90;;;;;;5032895;28;19920;-90
2020/12/07 04:54:48;;;;;;;;;;;3.20;99.90;;;;;;5033111;28;20442;-89
2020/12/07 04:57:14;;;;;;;;;;;3.10;99.90;;;;;;5033000;28;19977;-90
2020/12/07 04:59:42;;;;;;;;;;;3.20;99.90;;;;;;5032883;28;20007;-89
2020/12/07 05:02:09;;;;;;;;;;;3.10;99.90;;;;;;5032926;28;19958;-89
2020/12/07 05:04:37;;;;;;;;;;;3.10;99.90;;;;;;5033887;28;19959;-89
2020/12/07 05:07:05;;;;;;;;;;;3.10;99.90;;;;;;5032746;28;19992;-90
2020/12/07 05:09:32;;;;;;;;;;;3.10;99.90;;;;;;5032626;28;19909;-90
2020/12/07 05:12:03;;;;;;;;;;;3.10;99.90;;;;;;5032662;28;20388;-91
2020/12/07 05:14:29;;;;;;;;;;;3.10;99.90;;;;;;5033870;28;19910;-90
2020/12/07 05:16:57;;;;;;;;;;;3.10;99.90;;;;;;5031767;28;20304;-90
2020/12/07 05:19:25;;;;;;;;;;;3.10;99.90;;;;;;5032336;28;19917;-90
2020/12/07 05:21:51;;;;;;;;;;;3.20;99.90;;;;;;5031994;28;19910;-91
2020/12/07 05:24:19;;;;;;;;;;;3.10;99.90;;;;;;5032789;28;20324;-90
2020/12/07 05:26:47;;;;;;;;;;;3.10;99.90;;;;;;5036590;28;19963;-90
2020/12/07 05:29:20;;;;;;;;;;;3.10;99.90;;;;;;5036125;28;19962;-90
2020/12/07 05:31:48;;;;;;;;;;;3.10;99.90;;;;;;5039295;28;20004;-91
2020/12/07 05:34:16;;;;;;;;;;;3.10;99.90;;;;;;5039501;28;19909;-90
2020/12/07 05:36:52;;;;;;;;;;;3.10;99.90;;;;;;5036689;28;19913;-92
2020/12/07 05:39:17;;;;;;;;;;;3.10;99.90;;;;;;5039171;28;19916;-90
2020/12/07 05:41:43;;;;;;;;;;;3.10;99.90;;;;;;5039071;28;19909;-90
2020/12/07 05:44:09;;;;;;;;;;;3.10;99.90;;;;;;5039199;28;20115;-92
2020/12/07 05:46:34;;;;;;;;;;;3.10;99.90;;;;;;5038849;28;19909;-90
2020/12/07 05:49:05;;;;;;;;;;;3.10;99.90;;;;;;5038603;28;20038;-92
2020/12/07 05:51:30;;;;;;;;;;;3.10;99.90;;;;;;5056461;28;19916;-92
2020/12/07 05:54:01;;;;;;;;;;;3.10;99.90;;;;;;5038970;28;19965;-92
2020/12/07 05:56:29;;;;;;;;;;;3.10;99.90;;;;;;5038669;28;19920;-91
2020/12/07 05:59:19;;;;;;;;;;;3.10;99.90;;;;;;5053325;28;20375;-91
2020/12/07 06:01:47;;;;;;;;;;;3.10;99.90;;;;;;5037631;28;20000;-91
2020/12/07 06:04:16;;;;;;;;;;;3.10;99.90;;;;;;5038634;28;19910;-90
2020/12/07 06:06:43;;;;;;;;;;;3.00;99.90;;;;;;5038290;28;19913;-92
2020/12/07 06:09:14;;;;;;;;;;;3.00;99.90;;;;;;5035936;28;19924;-91
2020/12/07 06:11:44;;;;;;;;;;;3.10;99.90;;;;;;5038113;28;19913;-91
2020/12/07 06:14:12;;;;;;;;;;;3.00;99.90;;;;;;5037676;28;19913;-91
2020/12/07 06:16:38;;;;;;;;;;;3.10;99.90;;;;;;5038231;28;19913;-92
2020/12/07 06:19:13;;;;;;;;;;;3.10;99.90;;;;;;5038015;28;19913;-91
2020/12/07 06:21:44;;;;;;;;;;;3.10;99.90;;;;;;5056268;28;19909;-91
2020/12/07 06:24:10;;;;;;;;;;;3.00;99.90;;;;;;5039135;28;19919;-92
2020/12/07 06:26:35;;;;;;;;;;;3.00;99.90;;;;;;5038869;28;19999;-91
2020/12/07 06:29:02;;;;;;;;;;;3.00;99.90;;;;;;5039047;28;19983;-90
2020/12/07 06:31:28;;;;;;;;;;;3.00;99.90;;;;;;5038399;28;20372;-92
2020/12/07 06:33:56;;;;;;;;;;;3.00;99.90;;;;;;5038914;28;19913;-92
2020/12/07 06:36:26;;;;;;;;;;;3.00;99.90;;;;;;5055117;28;19952;-91
2020/12/07 06:39:02;;;;;;;;;;;3.00;99.90;;;;;;5038674;28;19919;-91
2020/12/07 06:41:33;;;;;;;;;;;2.90;99.90;;;;;;5038719;28;19909;-91
2020/12/07 06:43:59;;;;;;;;;;;2.90;99.90;;;;;;5038453;28;19948;-91
2020/12/07 06:46:46;;;;;;;;;;;2.80;99.90;;;;;;5038427;28;19916;-92
2020/12/07 06:49:12;;;;;;;;;;;2.80;99.90;;;;;;5038278;28;19908;-91
2020/12/07 06:51:38;;;;;;;;;;;2.80;99.90;;;;;;5038355;28;19908;-91
2020/12/07 06:54:13;;;;;;;;;;;2.80;99.90;;;;;;5038140;28;20418;-91
2020/12/07 06:56:39;;;;;;;;;;;2.70;99.90;;;;;;5038056;28;19963;-91
2020/12/07 06:59:10;;;;;;;;;;;2.70;99.90;;;;;;5037572;28;19920;-91
2020/12/07 07:01:38;;;;;;;;;;;2.70;99.90;;;;;;5038048;28;19908;-91
2020/12/07 07:04:06;;;;;;;;;;;2.70;99.90;;;;;;5037969;28;20052;-93
2020/12/07 07:06:31;;;;;;;;;;;2.80;99.90;;;;;;5037887;28;19921;-90
2020/12/07 07:08:59;;;;;;;;;;;2.70;99.90;;;;;;5037657;28;19909;-90
2020/12/07 07:11:30;;;;;;;;;;;2.70;99.90;;;;;;5037485;28;20372;-90
2020/12/07 07:13:59;;;;;;;;;;;2.70;99.90;;;;;;5038154;28;20443;-91
2020/12/07 07:16:25;;;;;;;;;;;2.70;99.90;;;;;;5037418;28;19919;-90
2020/12/07 07:18:52;;;;;;;;;;;2.80;99.90;;;;;;5037427;28;19913;-91
2020/12/07 07:21:17;;;;;;;;;;;2.80;99.90;;;;;;5037821;28;19959;-91
2020/12/07 07:23:44;;;;;;;;;;;2.80;99.90;;;;;;5037473;28;19913;-91
2020/12/07 07:26:16;;;;;;;;;;;2.80;99.90;;;;;;5037387;28;19913;-90
2020/12/07 07:28:41;;;;;;;;;;;2.90;99.90;;;;;;5037690;28;20008;-93
2020/12/07 07:31:09;;;;;;;;;;;2.90;99.90;;;;;;5055520;28;19987;-91
2020/12/07 07:33:37;;;;;;;;;;;2.90;99.90;;;;;;5037923;28;19909;-91
2020/12/07 07:36:08;;;;;;;;;;;3.00;99.90;;;;;;5037730;28;20383;-91
2020/12/07 07:38:34;;;;;;;;;;;3.00;99.90;;;;;;5037079;28;19917;-91
2020/12/07 07:41:04;;;;;;;;;;;3.00;99.90;;;;;;5037622;28;19915;-92
2020/12/07 07:43:35;;;;;;;;;;;3.10;99.90;;;;;;5037639;28;19913;-90
2020/12/07 07:46:01;;;;;;;;;;;3.20;99.90;;;;;;5037295;28;20356;-92
2020/12/07 07:48:37;;;;;;;;;;;3.30;99.90;;;;;;5037049;28;19940;-93
2020/12/07 08:18:03;;;;;;;;;;;4.00;99.90;;;;;;5054407;28;19912;-90
2020/12/07 08:20:33;;;;;;;;;;;4.10;99.90;;;;;;5036598;28;19916;-92
2020/12/07 08:22:59;;;;;;;;;;;4.10;99.90;;;;;;5036801;28;19909;-91
2020/12/07 08:25:45;;;;;;;;;;;4.10;99.90;;;;;;5036861;28;19909;-92
2020/12/07 08:28:16;;;;;;;;;;;4.20;99.90;;;;;;5036854;28;19913;-92
2020/12/07 08:30:55;;;;;;;;;;;4.30;99.90;;;;;;5036167;28;20003;-92
2020/12/07 08:33:21;;;;;;;;;;;4.30;99.90;;;;;;5036797;28;19909;-90
2020/12/07 08:35:46;;;;;;;;;;;4.40;99.90;;;;;;5036464;28;19915;-94
2020/12/07 08:38:22;;;;;;;;;;;4.40;99.90;;;;;;5036353;28;20272;-90
2020/12/07 08:40:48;;;;;;;;;;;4.40;99.90;;;;;;5036473;28;19952;-89
2020/12/07 08:43:13;;;;;;;;;;;4.40;99.90;;;;;;5036294;28;19916;-89
2020/12/07 08:45:43;;;;;;;;;;;4.30;99.90;;;;;;5036508;28;19934;-89
2020/12/07 08:48:09;;;;;;;;;;;4.30;99.90;;;;;;5036629;28;19958;-90
2020/12/07 08:50:34;;;;;;;;;;;4.30;99.90;;;;;;5036309;28;20003;-91
2020/12/07 08:53:00;;;;;;;;;;;4.30;99.90;;;;;;5036229;28;20089;-91
2020/12/07 08:55:29;;;;;;;;;;;4.40;99.90;;;;;;5035929;28;20007;-90
2020/12/07 08:58:00;;;;;;;;;;;4.40;99.90;;;;;;5036240;28;19920;-92
2020/12/07 09:00:25;;;;;;;;;;;4.40;99.90;;;;;;5035744;28;19920;-90
2020/12/07 09:02:51;;;;;;;;;;;4.40;99.90;;;;;;5036205;28;20276;-92
2020/12/07 09:05:17;;;;;;;;;;;4.40;99.90;;;;;;5035995;28;19962;-90
2020/12/07 09:07:42;;;;;;;;;;;4.50;99.90;;;;;;5035703;28;19908;-89
2020/12/07 09:10:09;;;;;;;;;;;4.50;99.90;;;;;;5035306;28;20338;-88
2020/12/07 09:12:38;;;;;;;;;;;4.40;99.90;;;;;;5035825;28;19955;-91
2020/12/07 09:15:03;;;;;;;;;;;4.50;99.90;;;;;;5035868;28;19909;-89
2020/12/07 09:17:29;;;;;;;;;;;4.50;99.90;;;;;;5031343;28;19913;-90
2020/12/07 09:19:57;;;;;;;;;;;4.50;99.90;;;;;;5035601;28;20008;-90
2020/12/07 09:22:23;;;;;;;;;;;4.60;99.90;;;;;;5035568;28;20159;-90
2020/12/07 09:24:48;;;;;;;;;;;4.70;99.90;;;;;;5035409;28;20280;-90
2020/12/07 09:27:14;;;;;;;;;;;4.80;99.90;;;;;;5035653;28;19916;-90
2020/12/07 09:29:40;;;;;;;;;;;4.80;99.90;;;;;;5035558;28;19979;-90
2020/12/07 09:32:10;;;;;;;;;;;4.80;99.90;;;;;;5035537;28;19955;-91
2020/12/07 09:34:39;;;;;;;;;;;5.00;99.90;;;;;;5035346;28;20379;-89
2020/12/07 09:37:04;;;;;;;;;;;5.00;99.90;;;;;;5035262;28;19917;-90
2020/12/07 09:39:30;;;;;;;;;;;5.00;99.90;;;;;;5035187;28;20403;-91
2020/12/07 09:41:57;;;;;;;;;;;4.90;99.90;;;;;;5051745;28;19970;-90
2020/12/07 09:44:23;;;;;;;;;;;4.90;99.90;;;;;;5052304;28;19916;-89
2020/12/07 09:46:54;;;;;;;;;;;4.80;99.90;;;;;;5035636;28;20288;-90
2020/12/07 09:49:20;;;;;;;;;;;4.80;99.90;;;;;;5035969;28;19917;-90
2020/12/07 09:51:46;;;;;;;;;;;4.80;99.90;;;;;;5035568;28;19909;-90
2020/12/07 09:54:14;;;;;;;;;;;4.70;99.90;;;;;;5035344;28;19908;-90
2020/12/07 09:56:39;;;;;;;;;;;4.70;99.90;;;;;;5035289;28;20019;-91
2020/12/07 09:59:05;;;;;;;;;;;4.70;99.90;;;;;;5035202;28;19959;-90
2020/12/07 10:01:35;;;;;;;;;;;4.70;99.90;;;;;;5035389;28;19916;-90
2020/12/07 10:04:01;;;;;;;;;;;4.70;99.90;;;;;;5035497;28;20356;-91
2020/12/07 10:06:32;;;;;;;;;;;4.80;99.90;;;;;;5035489;28;19916;-90
2020/12/07 10:09:00;;;;;;;;;;;4.80;99.90;;;;;;5035471;28;19912;-90
2020/12/07 10:11:25;;;;;;;;;;;4.80;99.90;;;;;;5038006;28;20221;-90
2020/12/07 10:13:51;;;;;;;;;;;4.80;99.90;;;;;;5038930;28;20011;-91
2020/12/07 10:16:17;;;;;;;;;;;4.80;99.90;;;;;;5039059;28;19913;-89
2020/12/07 10:18:42;;;;;;;;;;;4.90;99.90;;;;;;5038796;28;19913;-90
2020/12/07 10:21:10;;;;;;;;;;;4.90;99.90;;;;;;5038620;28;19909;-90
2020/12/07 10:23:38;;;;;;;;;;;5.00;99.90;;;;;;5039070;28;20043;-90
2020/12/07 10:26:06;;;;;;;;;;;5.10;99.90;;;;;;5038700;28;19962;-89
2020/12/07 10:28:32;;;;;;;;;;;5.20;99.90;;;;;;5038481;28;20323;-90
2020/12/07 10:31:02;;;;;;;;;;;5.40;99.90;;;;;;5038308;28;19920;-89
2020/12/07 10:33:28;;;;;;;;;;;5.50;99.90;;;;;;5056195;28;19967;-90
2020/12/07 10:35:54;;;;;;;;;;;5.60;99.90;;;;;;5038550;28;19909;-88
2020/12/07 10:38:22;;;;;;;;;;;5.70;99.90;;;;;;5038606;28;20109;-88
2020/12/07 10:40:50;;;;;;;;;;;5.70;99.90;;;;;;5038405;28;19962;-90
2020/12/07 10:43:18;;;;;;;;;;;5.80;99.90;;;;;;5038489;28;19916;-88
2020/12/07 10:45:43;;;;;;;;;;;5.90;99.90;;;;;;5054948;28;19908;-89
2020/12/07 10:48:09;;;;;;;;;;;5.90;99.90;;;;;;5038097;28;20403;-88
2020/12/07 10:50:37;;;;;;;;;;;6.00;99.90;;;;;;5037990;28;19909;-88
2020/12/07 10:53:08;;;;;;;;;;;6.00;99.90;;;;;;5038407;28;19916;-87
2020/12/07 10:55:36;;;;;;;;;;;6.00;99.90;;;;;;5038178;28;19909;-89
2020/12/07 10:58:02;;;;;;;;;;;6.00;99.90;;;;;;5037707;28;19913;-89
2020/12/07 11:00:29;;;;;;;;;;;6.00;99.90;;;;;;5054579;28;19913;-89
2020/12/07 11:02:55;;;;;;;;;;;6.00;99.90;;;;;;5054148;28;20003;-90
2020/12/07 11:05:21;;;;;;;;;;;5.90;99.90;;;;;;5037680;28;19959;-89
2020/12/07 11:07:49;;;;;;;;;;;5.90;99.90;;;;;;5055762;28;19916;-89
2020/12/07 11:10:15;;;;;;;;;;;5.90;99.90;;;;;;5038023;28;19916;-90
2020/12/07 11:12:43;;;;;;;;;;;5.90;99.90;;;;;;5037782;28;19909;-90
2020/12/07 11:15:09;;;;;;;;;;;5.90;99.90;;;;;;5037770;28;19909;-88
2020/12/07 11:17:36;;;;;;;;;;;5.90;99.90;;;;;;5037759;28;20431;-90
2020/12/07 11:20:04;;;;;;;;;;;5.80;99.90;;;;;;5037679;28;19967;-90
2020/12/07 11:22:30;;;;;;;;;;;5.80;99.90;;;;;;5037128;28;19963;-90
2020/12/07 11:24:55;;;;;;;;;;;5.80;99.90;;;;;;5037706;28;19908;-89
2020/12/07 11:27:26;;;;;;;;;;;5.80;99.90;;;;;;5038810;28;19909;-90
2020/12/07 11:29:51;;;;;;;;;;;5.80;99.90;;;;;;5038530;28;19908;-88
2020/12/07 11:32:39;;;;;;;;;;;5.80;99.90;;;;;;5038565;28;19916;-88
2020/12/07 11:35:04;;;;;;;;;;;5.70;99.90;;;;;;5038404;28;20076;-89
2020/12/07 11:37:32;;;;;;;;;;;5.70;99.90;;;;;;5038236;28;19965;-89
2020/12/07 11:40:51;;;;;;;;;;;5.70;99.90;;;;;;5054852;28;20008;-89
2020/12/07 11:43:07;;;;;;;;;;;5.70;99.90;;;;;;5044924;28;20268;-88
2020/12/07 11:45:32;;;;;;;;;;;5.70;99.90;;;;;;5038281;28;19909;-88
2020/12/07 11:48:00;;;;;;;;;;;5.70;99.90;;;;;;5037131;28;19915;-87
2020/12/07 11:50:28;;;;;;;;;;;5.60;99.90;;;;;;5036608;28;19909;-86
2020/12/07 11:52:53;;;;;;;;;;;5.60;99.90;;;;;;5035408;28;19921;-86
2020/12/07 11:55:19;;;;;;;;;;;5.60;99.90;;;;;;5034230;28;19963;-86
2020/12/07 11:57:45;;;;;;;;;;;5.70;99.90;;;;;;5053858;28;19917;-86
2020/12/07 12:00:11;;;;;;;;;;;5.70;99.90;;;;;;5036746;28;19913;-87
2020/12/07 12:02:37;;;;;;;;;;;5.70;99.90;;;;;;5036746;28;20352;-86
2020/12/07 12:05:05;;;;;;;;;;;5.80;99.90;;;;;;5036242;28;19915;-87
2020/12/07 12:07:35;;;;;;;;;;;5.70;99.90;;;;;;5051207;28;19971;-88
2020/12/07 12:10:03;;;;;;;;;;;5.70;99.90;;;;;;5036404;28;19916;-87
2020/12/07 12:12:29;;;;;;;;;;;5.70;99.90;;;;;;5036740;28;20472;-88
2020/12/07 12:14:56;;;;;;;;;;;5.70;99.90;;;;;;5054606;28;19944;-88
2020/12/07 12:17:22;;;;;;;;;;;5.70;99.90;;;;;;5036645;28;20402;-88
2020/12/07 12:19:50;;;;;;;;;;;5.70;99.90;;;;;;5036678;28;19947;-88
2020/12/07 12:22:18;;;;;;;;;;;5.70;99.90;;;;;;5036749;28;19909;-88
2020/12/07 12:24:46;;;;;;;;;;;5.60;99.90;;;;;;5036823;28;19952;-88
2020/12/07 12:27:11;;;;;;;;;;;5.60;99.90;;;;;;5036328;28;19909;-88
2020/12/07 12:29:37;;;;;;;;;;;5.60;99.90;;;;;;5036509;28;20374;-88
2020/12/07 12:32:02;;;;;;;;;;;5.60;99.90;;;;;;5036362;28;20015;-88
2020/12/07 12:34:28;;;;;;;;;;;5.50;99.90;;;;;;5035847;28;20315;-88
2020/12/07 12:36:59;;;;;;;;;;;5.60;99.90;;;;;;5036327;28;19919;-88
2020/12/07 12:39:26;;;;;;;;;;;5.60;99.90;;;;;;5036500;28;19917;-88
2020/12/07 12:41:52;;;;;;;;;;;5.60;99.90;;;;;;5034924;28;19916;-88
2020/12/07 12:44:18;;;;;;;;;;;5.60;99.90;;;;;;5035441;28;19909;-87
2020/12/07 12:46:43;;;;;;;;;;;5.50;99.90;;;;;;5036146;28;19954;-86
2020/12/07 12:49:11;;;;;;;;;;;5.50;99.90;;;;;;5035879;28;19913;-89
2020/12/07 12:51:37;;;;;;;;;;;5.50;99.90;;;;;;5035463;28;19920;-87
2020/12/07 12:54:02;;;;;;;;;;;5.50;99.90;;;;;;5035615;28;20276;-87
2020/12/07 12:56:30;;;;;;;;;;;5.50;99.90;;;;;;5035659;28;19913;-89
2020/12/07 12:58:56;;;;;;;;;;;5.50;99.90;;;;;;5035617;28;19996;-88
2020/12/07 13:01:24;;;;;;;;;;;5.50;99.90;;;;;;5053146;28;19998;-88
2020/12/07 13:03:52;;;;;;;;;;;5.50;99.90;;;;;;5035403;28;19935;-89
2020/12/07 13:06:17;;;;;;;;;;;5.50;99.90;;;;;;5035479;28;19909;-89
2020/12/07 13:08:45;;;;;;;;;;;5.60;99.90;;;;;;5052407;28;19915;-87
2020/12/07 13:11:11;;;;;;;;;;;5.60;99.90;;;;;;5035859;28;19909;-87
2020/12/07 13:13:39;;;;;;;;;;;5.60;99.90;;;;;;5035902;28;20008;-88
2020/12/07 13:16:14;;;;;;;;;;;5.60;99.90;;;;;;5035362;28;20383;-87
2020/12/07 13:18:47;;;;;;;;;;;5.60;99.90;;;;;;5035733;28;20318;-88
2020/12/07 13:24:19;;;;;;;;;;;5.60;99.90;;;;;;5047868;28;19916;-87
2020/12/07 13:26:53;;;;;;;;;;;5.60;99.90;;;;;;5030492;28;19909;-87
2020/12/07 13:29:18;;;;;;;;;;;5.60;99.90;;;;;;5035763;28;19944;-87
2020/12/07 13:31:46;;;;;;;;;;;5.60;99.90;;;;;;5035431;28;19963;-88
2020/12/07 13:34:12;;;;;;;;;;;5.60;99.90;;;;;;5035478;28;19913;-86
2020/12/07 13:36:42;;;;;;;;;;;5.60;99.90;;;;;;5035961;28;19919;-88
2020/12/07 13:39:10;;;;;;;;;;;5.60;99.90;;;;;;5035521;28;19913;-86
2020/12/07 13:41:36;;;;;;;;;;;5.60;99.90;;;;;;5035524;28;19916;-86
2020/12/07 13:44:01;;;;;;;;;;;5.60;99.90;;;;;;5035264;28;19909;-88
2020/12/07 13:46:29;;;;;;;;;;;5.50;99.90;;;;;;5037674;28;20360;-88
2020/12/07 13:48:55;;;;;;;;;;;5.40;99.90;;;;;;5038897;28;19917;-89
2020/12/07 13:51:23;;;;;;;;;;;5.40;99.90;;;;;;5039019;28;19915;-87
2020/12/07 13:53:48;;;;;;;;;;;5.30;99.90;;;;;;5057228;28;19912;-86
2020/12/07 13:56:14;;;;;;;;;;;5.30;99.90;;;;;;5039564;28;19919;-89
2020/12/07 13:58:42;;;;;;;;;;;5.30;99.90;;;;;;5057150;28;19916;-87
2020/12/07 14:01:10;;;;;;;;;;;5.30;99.90;;;;;;5039300;28;19916;-89
2020/12/07 14:03:43;;;;;;;;;;;5.30;99.90;;;;;;5038853;28;20007;-88
2020/12/07 14:06:09;;;;;;;;;;;5.30;99.90;;;;;;5038824;28;19913;-87
2020/12/07 14:08:35;;;;;;;;;;;5.30;99.90;;;;;;5056806;28;20348;-86
2020/12/07 14:11:03;;;;;;;;;;;5.20;99.90;;;;;;5038982;28;19955;-89
2020/12/07 14:13:28;;;;;;;;;;;5.20;99.90;;;;;;5039664;28;19920;-88
2020/12/07 14:15:54;;;;;;;;;;;5.10;99.90;;;;;;5057366;28;19909;-87
2020/12/07 14:18:22;;;;;;;;;;;5.00;99.90;;;;;;5039529;28;19917;-92
2020/12/07 14:23:45;;;;;;;;;;;4.90;99.90;;;;;;5056931;28;19909;-86
2020/12/07 14:42:07;;;;;;;;;;;4.60;99.90;;;;;;5053032;28;19930;-86
2020/12/07 14:44:36;;;;;;;;;;;4.50;99.90;;;;;;5037915;28;19980;-87
2020/12/07 14:47:03;;;;;;;;;;;4.50;99.90;;;;;;5037595;28;19913;-85
2020/12/07 14:49:28;;;;;;;;;;;4.50;99.90;;;;;;5037485;28;19920;-86
2020/12/07 14:52:07;;;;;;;;;;;4.50;99.90;;;;;;5037241;28;19913;-86
2020/12/07 14:54:40;;;;;;;;;;;4.50;99.90;;;;;;5055777;28;19909;-87
2020/12/07 15:05:29;;;;;;;;;;;4.30;99.90;;;;;;5053247;28;20387;-88
2020/12/07 15:15:40;;;;;;;;;;;4.10;99.90;;;;;;5051901;28;19908;-86
2020/12/07 15:18:06;;;;;;;;;;;4.00;99.90;;;;;;5038054;28;20372;-88
2020/12/07 15:20:32;;;;;;;;;;;3.90;99.90;;;;;;5037670;28;19913;-87
2020/12/07 15:23:02;;;;;;;;;;;3.90;99.90;;;;;;5038013;28;19967;-85
2020/12/07 15:25:30;;;;;;;;;;;3.90;99.90;;;;;;5037650;28;19913;-87
2020/12/07 15:27:56;;;;;;;;;;;3.90;99.90;;;;;;5037366;28;19921;-86
2020/12/07 15:30:21;;;;;;;;;;;3.80;99.90;;;;;;5037398;28;19928;-85
2020/12/07 15:32:47;;;;;;;;;;;3.80;99.90;;;;;;5036886;28;19996;-88
2020/12/07 15:35:17;;;;;;;;;;;3.80;99.90;;;;;;5037466;28;20000;-87
2020/12/07 15:37:43;;;;;;;;;;;3.80;99.90;;;;;;5037525;28;19913;-88